Home Latest Filings Latest Buys Latest Sells Institutions Derivatives Hot Buys Data Screener Email Alerts Insider Charts
HON - As of  04/09/20, 12:20:54 PM:   360 Insider Transactions.

Sector: Industrial Goods    Industry: Aerospace/Defense Products & Services
Prev Close:$118.57  Avg Vol(3m): 2,674,600  P/E: 19.20  EPS: 6.16

Email this page to a friend.    Institutional Transactions for HON

                Buy: Blue    Sell: Red
Non-meaningful transactions (gifts, grants, etc.) are automatically filtered out for quicker actions.
Buy(P) /
Sell(S)
P/S date Filed Date Company Symbol Insider Relationship Share Amt. Unit Price Total Proceeds Shares Owned Return(1m) Details
S 2020-02-18 2020-02-20 16:07:39.0 HONEYWELL INTERNATIONAL INC HON Deily Linnet F director 2,003 $179.01 $358,557.00 6,045 view
S 2019-08-20 2019-08-21 16:05:42.0 HONEYWELL INTERNATIONAL INC HON Gautam Rajeev officer (President & CEO, PMT) 10,984 $163.88 $1,800,060.00 28,920 view
S 2019-08-16 2019-08-16 17:36:38.0 HONEYWELL INTERNATIONAL INC HON Adamczyk Darius director officer (Chairman and CEO) 7,149 $165.08 $1,180,160.00 75,521 view
S 2019-08-13 2019-08-14 16:07:28.0 HONEYWELL INTERNATIONAL INC HON Pardo Jaime Chico director 6,607 $168.79 $1,115,200.00 496 view
S 2019-08-12 2019-08-14 16:07:28.0 HONEYWELL INTERNATIONAL INC HON Pardo Jaime Chico director 7,000 $165.92 $1,161,440.00 7,103 view
S 2019-05-20 2019-05-22 16:07:42.0 HONEYWELL INTERNATIONAL INC HON Kapur Vimal director officer (President & CEO - HBT) 5,000 $169.58 $847,900.00 17,042 view
S 2019-03-05 2019-03-07 16:05:41.0 HONEYWELL INTERNATIONAL INC HON Mahoney Timothy O. officer (President and CEO, Aerospace) 73,352 $154.30 $1.13182E7 151,021 view
S 2019-02-06 2019-02-07 16:15:49.0 HONEYWELL INTERNATIONAL INC HON Paz George director 1,035 $148.93 $154,143.00 10,755 view
S 2019-02-06 2019-02-07 16:15:10.0 HONEYWELL INTERNATIONAL INC HON Deily Linnet F director 2,365 $148.75 $351,794.00 7,135 view
S 2019-02-06 2019-02-07 16:15:10.0 HONEYWELL INTERNATIONAL INC HON Deily Linnet F director 1,869 $148.75 $278,014.00 9,500 view
S 2018-11-23 2018-11-26 16:19:02.0 HONEYWELL INTERNATIONAL INC HON Mikkilineni Krishna officer (SrVP, Engineering, Ops & IT) 28,281 $143.61 $4,061,430.00 103,548 view
S 2018-11-21 2018-11-21 16:49:03.0 HONEYWELL INTERNATIONAL INC HON PARDO JAIME CHICO /FA director 13,400 $145.13 $1,944,740.00 13,607 view
S 2018-11-14 2018-11-16 15:55:50.0 HONEYWELL INTERNATIONAL INC HON DAVIS D SCOTT director 3,963 $149.11 $590,923.00 21,801 view
S 2018-07-30 2018-08-01 16:04:03.0 HONEYWELL INTERNATIONAL INC HON Deily Linnet F director 3,066 $158.12 $484,796.00 8,721 view
S 2018-07-27 2018-07-30 16:23:18.0 HONEYWELL INTERNATIONAL INC HON Kapur Vimal officer (President and CEO, HBT) 9,996 $159.25 $1,591,860.00 11,415 view
S 2018-05-25 2018-05-29 18:38:30.0 HONEYWELL INTERNATIONAL INC HON PARDO JAIME CHICO /FA director 3,426 $150.59 $515,921.00 40,347 view
S 2018-05-25 2018-05-29 18:34:04.0 HONEYWELL INTERNATIONAL INC HON Mahoney Timothy O. officer (President and CEO, Aerospace) 114,489 $150.20 $1.71962E7 200,236 view
S 2018-02-26 2018-02-28 16:05:21.0 HONEYWELL INTERNATIONAL INC HON PARDO JAIME CHICO /FA director 2,868 $156.36 $448,440.00 38,224 view
S 2018-02-14 2018-02-16 14:49:08.0 HONEYWELL INTERNATIONAL INC HON Deily Linnet F director 2,886 $147.71 $426,291.00 6,219 view
S 2017-11-09 2017-11-13 16:07:55.0 HONEYWELL INTERNATIONAL INC HON SHEARES BRADLEY T director 1,328 $146.41 $194,432.00 4,002 view
S 2017-11-03 2017-11-07 18:34:36.0 HONEYWELL INTERNATIONAL INC HON Mikkilineni Krishna officer (SrVP, Engineering, Ops & IT) 13,074 $145.12 $1,897,300.00 91,924 view
S 2017-08-23 2017-08-24 18:32:04.0 HONEYWELL INTERNATIONAL INC HON Gautam Rajeev officer (President and CEO, PMT) 5,840 $136.68 $798,211.00 16,597 view
S 2017-08-07 2017-08-09 16:08:14.0 HONEYWELL INTERNATIONAL INC HON Deily Linnet F director 4,344 $138.47 $601,514.00 5,409 view
S 2017-08-02 2017-08-04 16:01:31.0 HONEYWELL INTERNATIONAL INC HON Mahoney Timothy O. officer (President and CEO, Aerospace) 66,001 $138.21 $9,122,000.00 163,656 view
S 2017-08-02 2017-08-04 16:01:31.0 HONEYWELL INTERNATIONAL INC HON Mahoney Timothy O. officer (President and CEO, Aerospace) 275,700 $138.05 $3.80604E7 229,657 view
S 2017-07-31 2017-08-01 16:02:56.0 HONEYWELL INTERNATIONAL INC HON Szlosek Thomas A officer (SVP, Chief Financial Officer) 803 $137.02 $110,027.00 5,702 view
S 2017-07-31 2017-08-01 16:02:26.0 HONEYWELL INTERNATIONAL INC HON Adams Katherine L. officer (SVP and General Counsel) 1,000 $137.24 $137,240.00 180,211 view
S 2017-07-27 2017-07-28 17:34:04.0 HONEYWELL INTERNATIONAL INC HON Mak Jennifer H officer (Vice President and Controller) 420 $136.66 $57,397.20 1,363 view
S 2017-05-23 2017-05-24 16:08:46.0 HONEYWELL INTERNATIONAL INC HON Mak Jennifer H officer (Vice President and Controller) 5,510 $131.88 $726,659.00 1,779 N/A view
S 2017-05-22 2017-05-23 16:05:18.0 HONEYWELL INTERNATIONAL INC HON Adams Katherine L. officer (SVP and General Counsel) 116,021 $131.70 $1.528E7 170,178 N/A view
S 2017-05-19 2017-05-22 16:05:04.0 HONEYWELL INTERNATIONAL INC HON SHEARES BRADLEY T director 3,430 $131.71 $451,765.00 5,301 N/A view
S 2017-05-08 2017-05-09 17:13:19.0 HONEYWELL INTERNATIONAL INC HON Szlosek Thomas A officer (Senior VP & CFO) 36,080 $131.16 $4,732,250.00 2,160 N/A view
S 2017-05-05 2017-05-08 16:16:19.0 HONEYWELL INTERNATIONAL INC HON DAVIS D SCOTT director 6,535 $130.97 $855,889.00 19,926 N/A view
S 2017-05-03 2017-05-04 16:33:30.0 HONEYWELL INTERNATIONAL INC HON COTE DAVID M director 70,854 $131.27 $9,301,000.00 673,027 N/A view
S 2017-05-03 2017-05-04 16:33:30.0 HONEYWELL INTERNATIONAL INC HON COTE DAVID M director 898,796 $130.74 $1.17509E8 743,881 N/A view
S 2017-04-26 2017-04-27 16:22:44.0 HONEYWELL INTERNATIONAL INC HON James Mark R. officer (SVP HR, Comm & Procur) 116,441 $130.47 $1.51921E7 124,385 N/A view
S 2016-12-22 2016-12-23 08:00:06.0 HONEYWELL INTERNATIONAL INC HON Deily Linnet F director 1,690 $116.74 $197,291.00 4,269 N/A view
S 2016-11-17 2016-11-21 16:14:05.0 HONEYWELL INTERNATIONAL INC HON James Mark R. officer (SVP HR, Comm & Procur) 1,500 $113.00 $169,500.00 79,911 N/A view
S 2016-11-04 2016-11-08 16:06:09.0 HONEYWELL INTERNATIONAL INC HON Deily Linnet F director 3,680 $108.55 $399,464.00 5,959 N/A view
S 2016-11-07 2016-11-08 16:04:27.0 HONEYWELL INTERNATIONAL INC HON SHEARES BRADLEY T director 3,000 $109.99 $329,970.00 4,288 N/A view
S 2016-08-15 2016-08-16 16:04:33.0 HONEYWELL INTERNATIONAL INC HON Adams Katherine L. officer (SVP and General Counsel) 108,712 $116.13 $1.26247E7 115,818 N/A view
S 2016-08-12 2016-08-15 16:06:00.0 HONEYWELL INTERNATIONAL INC HON Adamczyk Darius officer (President & COO) 13,985 $116.18 $1,624,780.00 14,266 N/A view
S 2016-08-04 2016-08-08 16:04:39.0 HONEYWELL INTERNATIONAL INC HON Deily Linnet F director 3,319 $115.98 $384,938.00 4,605 N/A view
S 2016-08-04 2016-08-08 16:03:31.0 HONEYWELL INTERNATIONAL INC HON DAVIS D SCOTT director 7,415 $116.21 $861,697.00 15,964 N/A view
S 2016-08-04 2016-08-08 16:02:20.0 HONEYWELL INTERNATIONAL INC HON Mahoney Timothy O. officer (President and CEO, Aerospace) 600 $116.29 $69,774.00 68,398 N/A view
S 2016-08-05 2016-08-05 17:13:00.0 HONEYWELL INTERNATIONAL INC HON COTE DAVID M director officer (Chairman & CEO) 534,505 $116.15 $6.20828E7 165,495 N/A view
S 2016-07-29 2016-08-01 16:03:23.0 HONEYWELL INTERNATIONAL INC HON Mak Jennifer H officer (Vice President & Controller) 277 $115.54 $32,004.60 420 N/A view
S 2016-07-28 2016-07-29 16:09:49.0 HONEYWELL INTERNATIONAL INC HON Kramvis Andreas officer (Vice Chairman) 1,850 $114.80 $212,380.00 66,441 N/A view
S 2016-05-27 2016-06-01 16:02:52.0 HONEYWELL INTERNATIONAL INC HON Mikkilineni Krishna officer (SrVP, Engineering, Ops & IT) 13,000 $114.10 $1,483,300.00 75,355 N/A view
S 2016-05-24 2016-05-25 08:00:06.0 HONEYWELL INTERNATIONAL INC HON Kramvis Andreas officer (Vice Chairman) 38 $113.98 $4,331.24 57,751 N/A view
S 2016-05-18 2016-05-23 16:04:19.0 HONEYWELL INTERNATIONAL INC HON Kramvis Andreas officer (Vice Chairman) 18,420 $114.00 $2,099,880.00 57,789 N/A view
S 2016-05-10 2016-05-11 16:03:08.0 HONEYWELL INTERNATIONAL INC HON Mahoney Timothy O. officer (President & CEO, Aerospace) 38,630 $115.23 $4,451,340.00 66,629 N/A view
S 2016-04-27 2016-04-28 16:44:04.0 HONEYWELL INTERNATIONAL INC HON Szlosek Thomas A officer (SVP & Chief Financial Officer) 28,317 $114.91 $3,253,910.00 35,323 N/A view
S 2016-04-27 2016-04-28 16:27:52.0 HONEYWELL INTERNATIONAL INC HON Kramvis Andreas officer (Vice Chairman) 51,405 $115.07 $5,915,170.00 76,209 N/A view
S 2016-04-27 2016-04-28 16:27:48.0 HONEYWELL INTERNATIONAL INC HON James Mark R. officer (SVP HR, Comm & Procur) 109,150 $114.84 $1.25348E7 81,411 N/A view
S 2016-04-15 2016-04-19 16:14:17.0 HONEYWELL INTERNATIONAL INC HON Kramvis Andreas officer (Vice Chairman) 74,010 $115.01 $8,511,890.00 52,614 N/A view
S 2016-04-18 2016-04-19 16:04:20.0 HONEYWELL INTERNATIONAL INC HON FRADIN ROGER officer (Vice Chairman) 188,420 $115.12 $2.16909E7 130,944 N/A view
S 2016-02-10 2016-02-11 16:33:51.0 HONEYWELL INTERNATIONAL INC HON FRADIN ROGER officer (Vice Chairman) 31,384 $102.77 $3,225,330.00 44,364 N/A view
S 2015-11-19 2015-11-24 08:00:19.0 HONEYWELL INTERNATIONAL INC HON COTE DAVID M director officer (Chairman & CEO) 183,834 $104.28 $1.91702E7 203,555 N/A view
S 2015-11-18 2015-11-19 16:07:07.0 HONEYWELL INTERNATIONAL INC HON Kramvis Andreas officer (Vice Chairman) 1,697 $103.71 $175,996.00 26,624 N/A view
S 2015-11-10 2015-11-12 16:14:11.0 HONEYWELL INTERNATIONAL INC HON DAVIS D SCOTT director 3,855 $102.07 $393,480.00 12,824 N/A view
S 2015-11-11 2015-11-12 16:10:34.0 HONEYWELL INTERNATIONAL INC HON Adams Katherine L. officer (SVP and General Counsel) 5,638 $104.05 $586,634.00 63,310 N/A view
S 2015-11-06 2015-11-09 16:05:06.0 HONEYWELL INTERNATIONAL INC HON Adams Katherine L. officer (SVP and General Counsel) 100 $104.00 $10,400.00 61,867 N/A view
S 2015-11-06 2015-11-09 16:02:11.0 HONEYWELL INTERNATIONAL INC HON SHEARES BRADLEY T director 3,980 $102.75 $408,945.00 5,224 N/A view
S 2015-11-04 2015-11-05 16:40:43.0 HONEYWELL INTERNATIONAL INC HON Adams Katherine L. officer (SVP and General Counsel) 7,000 $104.02 $728,140.00 61,842 N/A view
S 2015-11-03 2015-11-04 16:29:12.0 HONEYWELL INTERNATIONAL INC HON Deily Linnet F director 1,209 $103.98 $125,712.00 2,369 N/A view
S 2015-11-02 2015-11-03 16:05:27.0 HONEYWELL INTERNATIONAL INC HON FRADIN ROGER officer (Vice Chairman) 41,398 $103.77 $4,295,870.00 75,640 N/A view
S 2015-08-14 2015-08-17 16:06:47.0 HONEYWELL INTERNATIONAL INC HON Adams Katherine L. officer (Sr VP and General Counsel) 5,000 $106.00 $530,000.00 60,048 N/A view
S 2015-07-30 2015-07-31 16:14:04.0 HONEYWELL INTERNATIONAL INC HON Adams Katherine L. officer (Sr. VP & General Counsel) 1,153 $105.00 $121,065.00 65,048 N/A view
S 2015-07-30 2015-07-31 16:11:08.0 HONEYWELL INTERNATIONAL INC HON Mahoney Timothy O. officer (President and CEO, Aerospace) 2,077 $105.59 $219,310.00 44,083 N/A view
S 2015-07-29 2015-07-31 16:10:43.0 HONEYWELL INTERNATIONAL INC HON Matteo Adam officer (Vice President & Controller) 419 $105.20 $44,078.80 4,475 N/A view
S 2015-07-29 2015-07-31 16:08:51.0 HONEYWELL INTERNATIONAL INC HON James Mark R. officer (SVP-HR Procur & Communications) 55,997 $105.28 $5,895,360.00 22,902 N/A view
S 2015-07-23 2015-07-24 20:05:09.0 HONEYWELL INTERNATIONAL INC HON Szlosek Thomas A officer (Sr. VP & CFO) 20,940 $104.86 $2,195,770.00 31,377 N/A view
S 2015-07-22 2015-07-24 20:04:27.0 HONEYWELL INTERNATIONAL INC HON FRADIN ROGER officer (Vice Chairman) 70,926 $105.00 $7,447,230.00 98,890 N/A view
S 2015-05-18 2015-05-19 16:02:28.0 HONEYWELL INTERNATIONAL INC HON Kramvis Andreas officer (Vice Chairman) 61,542 $106.90 $6,578,840.00 18,458 N/A view
S 2015-05-18 2015-05-19 16:02:28.0 HONEYWELL INTERNATIONAL INC HON Kramvis Andreas officer (Vice Chairman) 20,218 $106.91 $2,161,510.00 0 N/A view
S 2015-04-27 2015-04-28 16:04:03.0 HONEYWELL INTERNATIONAL INC HON Adamczyk Darius officer (President & CEO, PMT) 4,330 $102.78 $445,037.00 20,763 N/A view
S 2015-04-22 2015-04-23 16:17:04.0 HONEYWELL INTERNATIONAL INC HON Matteo Adam officer (Vice President & Controller) 357 $101.65 $36,289.10 3,814 -4.20% view
S 2015-02-27 2015-03-02 16:27:14.0 HONEYWELL INTERNATIONAL INC HON BETHUNE GORDON M director 1,760 $103.15 $181,544.00 11,317 0.18% view
S 2015-02-27 2015-03-02 16:27:00.0 HONEYWELL INTERNATIONAL INC HON Mahoney Timothy O. officer (President and CEO, Aerospace) 1,110 $103.04 $114,374.00 37,688 0.08% view
S 2015-02-23 2015-02-24 16:14:21.0 HONEYWELL INTERNATIONAL INC HON COTE DAVID M director officer (Chairman & CEO) 303,798 $104.27 $3.1677E7 387,389 -0.03% view
S 2015-02-19 2015-02-20 16:54:40.0 HONEYWELL INTERNATIONAL INC HON Mahoney Timothy O. officer (President and CEO, Aerospace) 600 $104.10 $62,460.00 34,438 1.04% view
S 2015-02-12 2015-02-13 16:14:12.0 HONEYWELL INTERNATIONAL INC HON Adams Katherine L. officer (Sr. VP & General Counsel) 10,000 $103.31 $1,033,100.00 59,820 0.82% view
S 2015-02-03 2015-02-04 16:17:33.0 HONEYWELL INTERNATIONAL INC HON Adams Katherine L. officer (Sr. VP & General Counsel) 20,000 $101.00 $2,020,000.00 69,820 -3.01% view
S 2015-02-03 2015-02-04 16:17:16.0 HONEYWELL INTERNATIONAL INC HON FRADIN ROGER officer (Vice Chairman) 39,968 $100.03 $3,998,000.00 169,816 -4.01% view
S 2015-02-02 2015-02-04 16:17:16.0 HONEYWELL INTERNATIONAL INC HON FRADIN ROGER officer (Vice Chairman) 88,648 $97.75 $8,665,340.00 159,784 -6.99% view
S 2014-12-19 2014-12-22 16:18:38.0 HONEYWELL INTERNATIONAL INC HON Mahoney Timothy O. officer (President & CEO, Aerospace) 14,699 $100.78 $1,481,370.00 33,570 2.54% view
S 2014-10-23 2014-10-24 16:06:57.0 HONEYWELL INTERNATIONAL INC HON FRADIN ROGER officer (Vice Chairman) 88,677 $93.84 $8,321,450.00 138,432 -4.68% view
S 2014-10-23 2014-10-24 16:05:17.0 HONEYWELL INTERNATIONAL INC HON Adams Katherine L. officer (SVP and General Counsel) 3,090 $93.44 $288,730.00 92,321 -5.13% view
S 2014-10-23 2014-10-24 16:05:17.0 HONEYWELL INTERNATIONAL INC HON Adams Katherine L. officer (SVP and General Counsel) 21,975 $93.41 $2,052,680.00 95,411 -5.16% view
S 2014-10-22 2014-10-24 16:02:35.0 HONEYWELL INTERNATIONAL INC HON Ismail Alexandre officer (President & CEO, ACS) 53,831 $92.68 $4,989,060.00 2,485 -5.99% view
S 2014-10-22 2014-10-24 16:01:37.0 HONEYWELL INTERNATIONAL INC HON James Mark R. officer (SVP-HR Procur & Communications) 54,999 $92.95 $5,112,160.00 65,384 -5.68% view
S 2014-10-22 2014-10-24 16:01:37.0 HONEYWELL INTERNATIONAL INC HON James Mark R. officer (SVP-HR Procur & Communications) 68,175 $92.90 $6,333,460.00 120,383 -5.74% view
S 2014-08-18 2014-08-19 16:14:11.0 HONEYWELL INTERNATIONAL INC HON FRADIN ROGER officer (Vice Chairman) 90,000 $95.03 $8,552,700.00 185,711 -1.43% view
S 2014-08-15 2014-08-19 16:14:11.0 HONEYWELL INTERNATIONAL INC HON SHEARES BRADLEY T director 3,857 $94.69 $365,219.00 5,685 0.04% view
S 2014-08-13 2014-08-14 16:37:43.0 HONEYWELL INTERNATIONAL INC HON Adams Katherine L. officer (Sr. VP & General Counsel) 3,800 $94.00 $357,200.00 77,212 -0.53% view
S 2014-08-01 2014-08-04 16:16:26.0 HONEYWELL INTERNATIONAL INC HON Matteo Adam officer (Vice President & Controller) 135 $92.01 $12,421.30 3,286 -3.50% view
S 2014-05-13 2014-05-15 08:47:05.0 HONEYWELL INTERNATIONAL INC HON Kramvis Andreas officer (Vice Chairman) 12,144 $94.50 $1,147,610.00 20,218 0.77% view
S 2014-05-12 2014-05-15 08:47:05.0 HONEYWELL INTERNATIONAL INC HON Kramvis Andreas officer (Vice Chairman) 59,431 $94.00 $5,586,510.00 16,362 0.36% view
S 2014-02-27 2014-02-28 16:57:33.0 HONEYWELL INTERNATIONAL INC HON Matteo Adam officer (Vice President & Controller) 293 $94.14 $27,583.00 2,727 4.08% view
S 2014-02-24 2014-02-26 08:29:53.0 HONEYWELL INTERNATIONAL INC HON FRADIN ROGER officer (President & CEO, ACS) 54,032 $95.00 $5,133,040.00 275,711 3.19% view
S 2014-02-19 2014-02-20 16:47:50.0 HONEYWELL INTERNATIONAL INC HON FRADIN ROGER officer (President & CEO, ACS) 12,257 $95.00 $1,164,420.00 258,422 2.22% view
S 2014-01-31 2014-02-03 18:04:12.0 HONEYWELL INTERNATIONAL INC HON Adams Katherine L. officer (SVP and General Counsel) 5,326 $92.00 $489,992.00 81,012 -2.65% view
S 2014-01-30 2014-01-31 16:04:45.0 HONEYWELL INTERNATIONAL INC HON BETHUNE GORDON M director 1,923 $90.87 $174,743.00 8,077 -3.93% view
S 2014-01-29 2014-01-30 16:04:37.0 HONEYWELL INTERNATIONAL INC HON FRADIN ROGER officer (President & CEO, ACS) 67,477 $90.23 $6,088,450.00 254,500 -4.67% view
S 2013-12-26 2013-12-27 19:34:16.0 HONEYWELL INTERNATIONAL INC HON Adams Katherine L. officer (SVP and General Counsel) 6,911 $91.00 $628,901.00 78,838 2.78% view
S 2013-12-23 2013-12-26 16:03:30.0 HONEYWELL INTERNATIONAL INC HON Adams Katherine L. officer (SVP and General Counsel) 13,399 $90.00 $1,205,910.00 75,749 0.22% view
S 2013-12-23 2013-12-26 16:01:25.0 HONEYWELL INTERNATIONAL INC HON FRADIN ROGER officer (President & CEO, ACS) 25,000 $90.00 $2,250,000.00 234,477 0.22% view
S 2013-12-20 2013-12-23 16:04:42.0 HONEYWELL INTERNATIONAL INC HON Adams Katherine L. officer (Sr. VP & General Counsel) 2,335 $89.22 $208,340.00 69,148 -0.81% view
S 2013-11-18 2013-11-19 16:31:36.0 HONEYWELL INTERNATIONAL INC HON Mahoney Timothy O. officer (President & CEO, Aerospace) 36,000 $88.87 $3,199,320.00 26,505 0.47% view
S 2013-11-18 2013-11-19 16:31:36.0 HONEYWELL INTERNATIONAL INC HON Mahoney Timothy O. officer (President & CEO, Aerospace) 30,798 $88.76 $2,733,630.00 62,505 0.35% view
S 2013-11-11 2013-11-13 16:04:15.0 HONEYWELL INTERNATIONAL INC HON ANDERSON DAVID J officer (Sr. VP and CFO) 65,155 $87.19 $5,680,860.00 126,510 0.85% view
S 2013-10-28 2013-10-29 16:10:34.0 HONEYWELL INTERNATIONAL INC HON Ismail Alexandre officer (Pres Energy, Safety & Security) 15,323 $87.21 $1,336,320.00 53,831 -1.90% view
S 2013-10-25 2013-10-28 17:08:14.0 HONEYWELL INTERNATIONAL INC HON ANDERSON DAVID J officer (Sr. VP and CFO) 20,000 $86.91 $1,738,200.00 91,665 -1.93% view
S 2013-10-23 2013-10-24 16:32:10.0 HONEYWELL INTERNATIONAL INC HON Adams Katherine L. officer (Sr. VP & General Counsel) 8,000 $86.40 $691,200.00 72,448 -2.78% view
S 2013-10-23 2013-10-24 16:31:16.0 HONEYWELL INTERNATIONAL INC HON James Mark R. officer (SVP-HR Procur & Communications) 370 $86.10 $31,857.00 107,541 -3.14% view
S 2013-10-11 2013-10-15 16:13:14.0 HONEYWELL INTERNATIONAL INC HON FRADIN ROGER officer (President & CEO, ACS) 12,897 $85.02 $1,096,500.00 259,477 -2.82% view
S 2013-10-10 2013-10-15 16:13:14.0 HONEYWELL INTERNATIONAL INC HON FRADIN ROGER officer (President & CEO, ACS) 177,715 $85.00 $1.51058E7 272,374 -2.87% view
S 2013-09-23 2013-09-24 16:15:32.0 HONEYWELL INTERNATIONAL INC HON FRADIN ROGER officer (President & CEO, ACS) 20,711 $85.14 $1,763,330.00 88,236 -1.82% view
S 2013-09-19 2013-09-20 16:05:22.0 HONEYWELL INTERNATIONAL INC HON Adams Katherine L. officer (SVP and General Counsel) 6,516 $87.25 $568,521.00 80,448 3.06% view
S 2013-09-16 2013-09-17 19:44:14.0 HONEYWELL INTERNATIONAL INC HON Adams Katherine L. officer (SVP and General Counsel) 6,556 $85.25 $558,899.00 76,964 -0.59% view
P 2013-08-15 2013-08-16 16:06:36.0 HONEYWELL INTERNATIONAL INC HON Gregg Judd A. director 1,000 $82.10 $82,100.00 3,000 2.38% view
S 2013-08-13 2013-08-14 17:35:52.0 HONEYWELL INTERNATIONAL INC HON Adams Katherine L. officer (Sr. VP & General Counsel) 6,000 $83.15 $498,900.00 74,020 -1.08% view
S 2013-08-09 2013-08-12 16:26:36.0 HONEYWELL INTERNATIONAL INC HON Kramvis Andreas officer (Pres/CEO Honeywell PMT) 16,812 $83.50 $1,403,800.00 78,998 1.28% view
S 2013-08-09 2013-08-12 16:26:36.0 HONEYWELL INTERNATIONAL INC HON Kramvis Andreas officer (Pres/CEO Honeywell PMT) 22,848 $83.50 $1,907,810.00 95,810 1.28% view
S 2013-08-09 2013-08-12 16:13:32.0 HONEYWELL INTERNATIONAL INC HON James Mark R. officer (Sr. VP, HR & Communications) 22,078 $83.51 $1,843,730.00 100,197 1.29% view
S 2013-08-08 2013-08-09 18:45:23.0 HONEYWELL INTERNATIONAL INC HON ANDERSON DAVID J officer (Sr. VP and CFO) 14,831 $83.86 $1,243,730.00 111,665 2.62% view
S 2013-07-30 2013-07-31 16:22:26.0 HONEYWELL INTERNATIONAL INC HON Matteo Adam officer (Vice President & Controller) 265 $83.19 $22,045.30 1,920 3.76% view
S 2013-07-29 2013-07-31 16:22:12.0 HONEYWELL INTERNATIONAL INC HON SHEARES BRADLEY T director 7,670 $82.93 $636,073.00 4,542 3.46% view
S 2013-07-25 2013-07-29 16:21:44.0 HONEYWELL INTERNATIONAL INC HON James Mark R. officer (Sr. VP, HR & Communications) 145 $82.91 $12,022.00 85,806 1.82% view
S 2013-07-05 2013-07-08 16:07:55.0 HONEYWELL INTERNATIONAL INC HON Adams Katherine L. officer (Sr. VP & General Counsel) 153 $79.19 $12,116.10 80,020 -6.74% view
S 2011-04-13 2013-06-14 17:14:18.0 HONEYWELL INTERNATIONAL INC HON Deily Linnet F director 4 $57.40 $229.60 0 -5.42% view
S 2011-04-08 2013-06-14 17:14:18.0 HONEYWELL INTERNATIONAL INC HON Deily Linnet F director 4 $58.25 $233.00 4 -4.64% view
S 2011-04-07 2013-06-14 17:14:18.0 HONEYWELL INTERNATIONAL INC HON Deily Linnet F director 6 $58.70 $352.20 8 -3.83% view
S 2011-03-14 2013-06-14 17:14:18.0 HONEYWELL INTERNATIONAL INC HON Deily Linnet F director 4 $55.51 $222.04 14 -3.58% view
S 2011-02-17 2013-06-14 17:14:18.0 HONEYWELL INTERNATIONAL INC HON Deily Linnet F director 7 $57.42 $401.94 18 3.85% view
P 2011-02-01 2013-06-14 17:14:18.0 HONEYWELL INTERNATIONAL INC HON Deily Linnet F director 4 $56.35 $225.40 25 0.18% view
P 2010-12-30 2013-06-14 17:14:18.0 HONEYWELL INTERNATIONAL INC HON Deily Linnet F director 21 $52.99 $1,112.79 21 4.40% view
S 2013-05-23 2013-05-23 16:08:33.0 HONEYWELL INTERNATIONAL INC HON Mikkilineni Krishna officer (SVP, Engineering & Operations) 17,560 $79.50 $1,396,020.00 64,546 1.57% view
S 2013-05-17 2013-05-20 16:27:43.0 HONEYWELL INTERNATIONAL INC HON Adams Katherine L. officer (SVP and General Counsel) 6,669 $80.00 $533,520.00 77,177 0.36% view
S 2013-05-15 2013-05-17 16:08:09.0 HONEYWELL INTERNATIONAL INC HON Adams Katherine L. officer (SVP and General Counsel) 6,685 $79.84 $533,730.00 73,846 2.08% view
S 2013-05-08 2013-05-09 18:06:27.0 HONEYWELL INTERNATIONAL INC HON Adams Katherine L. officer (SVP and General Counsel) 33,710 $76.90 $2,592,300.00 70,531 -2.83% view
S 2013-05-03 2013-05-06 17:33:14.0 HONEYWELL INTERNATIONAL INC HON Adams Katherine L. officer (SVP and General Counsel) 27,110 $75.50 $2,046,800.00 54,241 -4.44% view
S 2013-05-03 2013-05-06 17:32:11.0 HONEYWELL INTERNATIONAL INC HON ANDERSON DAVID J officer (Sr. VP and CFO) 15,400 $75.24 $1,158,700.00 126,496 -4.80% view
S 2013-05-03 2013-05-06 16:28:07.0 HONEYWELL INTERNATIONAL INC HON Ismail Alexandre officer (Pres. Energy,Safety & Security) 98,074 $75.05 $7,360,450.00 59,169 -5.06% view
S 2013-04-25 2013-04-26 16:07:35.0 HONEYWELL INTERNATIONAL INC HON Matteo Adam officer (Vice President & Controller) 49 $74.87 $3,668.63 1,168 -5.90% view
S 2013-04-24 2013-04-25 16:11:54.0 HONEYWELL INTERNATIONAL INC HON James Mark R. officer (Sr. VP, HR & Communications) 108,764 $74.85 $8,140,990.00 82,955 -5.93% view
S 2013-04-24 2013-04-25 16:10:56.0 HONEYWELL INTERNATIONAL INC HON ANDERSON DAVID J officer (Sr. VP and CFO) 15,006 $74.84 $1,123,050.00 141,896 -5.95% view
S 2013-04-24 2013-04-25 16:10:56.0 HONEYWELL INTERNATIONAL INC HON ANDERSON DAVID J officer (Sr. VP and CFO) 110,388 $74.79 $8,255,920.00 156,902 -6.02% view
S 2013-03-22 2013-03-25 16:10:56.0 HONEYWELL INTERNATIONAL INC HON FRADIN ROGER officer (President & CEO, ACS) 56,392 $75.00 $4,229,400.00 18,609 0.55% view
S 2013-03-01 2013-03-04 16:06:13.0 HONEYWELL INTERNATIONAL INC HON Mahoney Timothy O. officer (President and CEO, Aerospace) 500 $70.17 $35,085.00 45,288 -5.93% view
S 2013-03-01 2013-03-04 16:06:13.0 HONEYWELL INTERNATIONAL INC HON Mahoney Timothy O. officer (President and CEO, Aerospace) 594 $70.16 $41,675.00 45,788 -5.94% view
S 2013-02-28 2013-03-01 16:29:53.0 HONEYWELL INTERNATIONAL INC HON Matteo Adam officer (Vice President & Controller) 64 $70.12 $4,487.68 1,024 -7.46% view
S 2013-02-28 2013-03-01 16:29:53.0 HONEYWELL INTERNATIONAL INC HON Matteo Adam officer (Vice President & Controller) 100 $70.19 $7,019.00 1,088 -7.35% view
S 2013-02-28 2013-03-01 16:29:53.0 HONEYWELL INTERNATIONAL INC HON Matteo Adam officer (Vice President & Controller) 200 $70.18 $14,036.00 1,188 -7.37% view
S 2013-02-27 2013-02-28 16:09:02.0 HONEYWELL INTERNATIONAL INC HON Mikkilineni Krishna officer (SrVP, Engineering & Operations) 13,816 $70.50 $974,028.00 53,231 -6.62% view
S 2013-02-19 2013-02-20 16:09:35.0 HONEYWELL INTERNATIONAL INC HON Mahoney Timothy O. officer (President and CEO, Aerospace) 277 $70.23 $19,453.70 41,174 -5.41% view
S 2013-02-05 2013-02-06 16:11:32.0 HONEYWELL INTERNATIONAL INC HON FRADIN ROGER officer (President & CEO, ACS) 50,000 $70.00 $3,500,000.00 1 -0.97% view
S 2013-02-04 2013-02-05 16:11:56.0 HONEYWELL INTERNATIONAL INC HON Ismail Alexandre officer (President and CEO, TS) 11,024 $68.52 $755,364.00 18,243 -1.72% view
S 2013-01-31 2013-02-01 16:14:41.0 HONEYWELL INTERNATIONAL INC HON FRADIN ROGER officer (President & CEO, ACS) 50,000 $68.44 $3,422,000.00 50,001 -2.43% view
S 2012-12-27 2012-12-28 18:37:19.0 HONEYWELL INTERNATIONAL INC HON Mahoney Timothy O. officer (President and CEO, Aerospace) 4,465 $63.23 $282,322.00 40,040 -8.07% view
S 2012-12-26 2012-12-27 08:19:43.0 HONEYWELL INTERNATIONAL INC HON Kramvis Andreas officer (Pres/CEO Honeywell PMT) 5,758 $64.25 $369,952.00 26,857 -6.35% view
S 2012-12-24 2012-12-27 08:19:43.0 HONEYWELL INTERNATIONAL INC HON Kramvis Andreas officer (Pres/CEO Honeywell PMT) 8,969 $63.82 $572,402.00 25,115 -6.93% view
S 2012-12-24 2012-12-27 08:19:43.0 HONEYWELL INTERNATIONAL INC HON Kramvis Andreas officer (Pres/CEO Honeywell PMT) 15,000 $63.51 $952,650.00 34,084 -7.45% view
S 2012-12-20 2012-12-21 08:36:39.0 HONEYWELL INTERNATIONAL INC HON Ismail Alexandre officer (President and CEO, TS) 9,080 $64.27 $583,572.00 29,267 -5.51% view
S 2012-12-19 2012-12-20 16:14:10.0 HONEYWELL INTERNATIONAL INC HON ANDERSON DAVID J officer (Sr. VP and CFO) 83,723 $63.95 $5,354,090.00 117,290 -6.04% view
S 2012-11-20 2012-11-21 16:12:21.0 HONEYWELL INTERNATIONAL INC HON Adams Katherine L. officer (Sr. VP & General Counsel) 530 $60.52 $32,075.60 42,244 -6.23% view
S 2012-11-20 2012-11-21 16:12:21.0 HONEYWELL INTERNATIONAL INC HON Adams Katherine L. officer (Sr. VP & General Counsel) 300 $60.53 $18,159.00 42,774 -6.21% view
S 2012-11-07 2012-11-08 16:16:17.0 HONEYWELL INTERNATIONAL INC HON Kramvis Andreas officer (Pres/CEO Honeywell PMT) 10,000 $62.15 $621,500.00 49,084 0.29% view
S 2012-11-06 2012-11-08 16:16:17.0 HONEYWELL INTERNATIONAL INC HON Kramvis Andreas officer (Pres/CEO Honeywell PMT) 5,776 $63.75 $368,220.00 59,084 3.50% view
S 2012-11-01 2012-11-05 16:50:00.0 HONEYWELL INTERNATIONAL INC HON Kramvis Andreas officer (President & CEO, PMT) 11,626 $62.75 $729,532.00 57,360 2.26% view
S 2012-11-02 2012-11-05 16:48:30.0 HONEYWELL INTERNATIONAL INC HON James Mark R. officer (Sr. VP, HR & Communications) 2,200 $62.60 $137,720.00 31,719 2.03% view
S 2012-11-02 2012-11-05 16:48:30.0 HONEYWELL INTERNATIONAL INC HON James Mark R. officer (Sr. VP, HR & Communications) 2,840 $62.57 $177,699.00 33,919 1.98% view
S 2012-11-02 2012-11-05 16:47:18.0 HONEYWELL INTERNATIONAL INC HON FRADIN ROGER officer (President and CEO, ACS) 115,117 $62.78 $7,227,050.00 107,973 2.31% view
S 2012-10-26 2012-10-29 10:23:22.0 HONEYWELL INTERNATIONAL INC HON COTE DAVID M officer (Chairman and CEO) 390,511 $61.59 $2.40516E7 621,451 1.51% view
S 2012-10-24 2012-10-25 16:32:39.0 HONEYWELL INTERNATIONAL INC HON ANDERSON DAVID J officer (Sr. VP and CFO) 106,224 $61.45 $6,527,460.00 89,013 0.31% view
S 2012-10-12 2012-10-15 16:55:44.0 HONEYWELL INTERNATIONAL INC HON Adams Katherine L. officer (Sr. VP & General Counsel) 625 $60.78 $37,987.50 43,654 -1.09% view
S 2012-08-17 2012-08-21 17:05:34.0 HONEYWELL INTERNATIONAL INC HON Mikkilineni Krishna officer (SVP, Engineering & Operations) 12,412 $59.50 $738,514.00 38,650 -3.73% view
S 2012-08-17 2012-08-20 19:04:45.0 HONEYWELL INTERNATIONAL INC HON Kramvis Andreas officer (President & CEO, PMT) 8,895 $59.15 $526,139.00 54,236 -4.34% view
S 2012-08-17 2012-08-20 19:04:45.0 HONEYWELL INTERNATIONAL INC HON Kramvis Andreas officer (President & CEO, PMT) 1,900 $59.16 $112,404.00 63,131 -4.33% view
S 2012-08-17 2012-08-20 19:04:45.0 HONEYWELL INTERNATIONAL INC HON Kramvis Andreas officer (President & CEO, PMT) 1,000 $59.17 $59,170.00 65,031 -4.31% view
S 2012-07-30 2012-07-31 16:23:02.0 HONEYWELL INTERNATIONAL INC HON James Mark R. officer (SVP, HR & Communications) 6,165 $58.51 $360,714.00 30,159 0.68% view
S 2012-04-27 2012-04-30 11:49:14.0 HONEYWELL INTERNATIONAL INC HON ANDERSON DAVID J officer (Sr. VP and CFO) 34,600 $61.21 $2,117,760.00 30,406 7.28% view
S 2012-03-01 2012-03-02 16:12:08.0 HONEYWELL INTERNATIONAL INC HON Kramvis Andreas officer (President & CEO, PMT) 7,850 $59.95 $470,608.00 51,031 -1.83% view
S 2012-03-01 2012-03-02 16:10:11.0 HONEYWELL INTERNATIONAL INC HON Winters Kathleen A officer (Vice President and Controller) 693 $59.73 $41,392.90 18,241 -2.21% view
S 2012-03-01 2012-03-02 16:09:29.0 HONEYWELL INTERNATIONAL INC HON James Mark R. officer (Sr. VP, HR & Communications) 3,860 $59.69 $230,403.00 36,324 -2.28% view
S 2012-02-29 2012-03-01 13:35:13.0 HONEYWELL INTERNATIONAL INC HON Mahoney Timothy O. officer (President and CEO, Aerospace) 1,598 $60.14 $96,103.70 38,504 -0.93% view
S 2012-02-28 2012-03-01 13:32:24.0 HONEYWELL INTERNATIONAL INC HON Adams Katherine L. officer (Sr. VP & General Counsel) 939 $59.76 $56,114.60 30,479 -1.66% view
S 2012-02-28 2012-03-01 13:31:22.0 HONEYWELL INTERNATIONAL INC HON Kramvis Andreas officer (President and CEO, PMT) 2,600 $59.76 $155,376.00 48,881 -1.66% view
S 2012-02-03 2012-02-07 16:26:01.0 HONEYWELL INTERNATIONAL INC HON ANDERSON DAVID J officer (Sr. VP and CFO) 27,950 $59.97 $1,676,160.00 15,006 0.37% view
S 2012-02-03 2012-02-06 16:21:02.0 HONEYWELL INTERNATIONAL INC HON Adams Katherine L. officer (SVP and General Counsel) 700 $59.93 $41,951.00 19,067 0.30% view
S 2012-02-03 2012-02-06 16:21:02.0 HONEYWELL INTERNATIONAL INC HON Adams Katherine L. officer (SVP and General Counsel) 900 $59.92 $53,928.00 19,767 0.28% view
S 2012-02-03 2012-02-06 16:21:02.0 HONEYWELL INTERNATIONAL INC HON Adams Katherine L. officer (SVP and General Counsel) 1,380 $59.91 $82,675.80 20,667 0.27% view
S 2012-02-03 2012-02-06 16:21:02.0 HONEYWELL INTERNATIONAL INC HON Adams Katherine L. officer (SVP and General Counsel) 1,700 $59.90 $101,830.00 22,047 0.25% view
S 2012-02-03 2012-02-06 16:21:02.0 HONEYWELL INTERNATIONAL INC HON Adams Katherine L. officer (SVP and General Counsel) 300 $59.89 $17,967.00 23,747 0.23% view
S 2012-02-03 2012-02-06 16:21:02.0 HONEYWELL INTERNATIONAL INC HON Adams Katherine L. officer (SVP and General Counsel) 600 $59.88 $35,928.00 24,047 0.22% view
S 2012-02-01 2012-02-02 15:44:59.0 HONEYWELL INTERNATIONAL INC HON ANDERSON DAVID J officer (Sr. VP and CFO) 501 $59.07 $29,594.10 2,956 -1.78% view
S 2012-02-01 2012-02-02 15:44:59.0 HONEYWELL INTERNATIONAL INC HON ANDERSON DAVID J officer (Sr. VP and CFO) 6,543 $59.06 $386,430.00 3,457 -1.79% view
S 2011-12-23 2011-12-27 09:56:29.0 HONEYWELL INTERNATIONAL INC HON Adams Katherine L. officer (SVP and General Counsel) 300 $54.79 $16,437.00 16,147 -5.17% view
S 2011-12-23 2011-12-27 09:56:29.0 HONEYWELL INTERNATIONAL INC HON Adams Katherine L. officer (SVP and General Counsel) 100 $54.78 $5,478.00 16,447 -5.18% view
S 2011-12-23 2011-12-27 09:56:29.0 HONEYWELL INTERNATIONAL INC HON Adams Katherine L. officer (SVP and General Counsel) 200 $54.77 $10,954.00 16,547 -5.20% view
S 2011-12-23 2011-12-27 09:56:29.0 HONEYWELL INTERNATIONAL INC HON Adams Katherine L. officer (SVP and General Counsel) 2,932 $54.76 $160,556.00 16,747 -5.22% view
S 2011-12-23 2011-12-27 09:56:29.0 HONEYWELL INTERNATIONAL INC HON Adams Katherine L. officer (SVP and General Counsel) 500 $54.75 $27,375.00 19,679 -5.24% view
S 2011-12-23 2011-12-27 09:56:29.0 HONEYWELL INTERNATIONAL INC HON Adams Katherine L. officer (SVP and General Counsel) 665 $54.74 $36,402.10 20,179 -5.26% view
S 2011-11-11 2011-12-22 15:14:18.0 HONEYWELL INTERNATIONAL INC HON COTE DAVID M officer (Chairman & CEO) 427,355 $54.83 $2.34319E7 463,637 1.51% view
S 2011-11-10 2011-12-22 15:14:18.0 HONEYWELL INTERNATIONAL INC HON COTE DAVID M officer (Chairman & CEO) 433,400 $53.59 $2.32259E7 340,992 -0.77% view
S 2011-12-21 2011-12-22 09:42:35.0 HONEYWELL INTERNATIONAL INC HON Winters Kathleen A officer (Vice President and Controller) 100 $54.22 $5,422.00 15,580 -5.83% view
S 2011-12-21 2011-12-22 09:42:35.0 HONEYWELL INTERNATIONAL INC HON Winters Kathleen A officer (Vice President and Controller) 1,312 $54.21 $71,123.50 15,680 -5.85% view
S 2011-12-21 2011-12-22 09:42:35.0 HONEYWELL INTERNATIONAL INC HON Winters Kathleen A officer (Vice President and Controller) 2,300 $54.20 $124,660.00 16,992 -5.87% view
S 2011-12-20 2011-12-21 13:13:02.0 HONEYWELL INTERNATIONAL INC HON Ismail Alexandre officer (President and CEO, TS) 3,786 $53.38 $202,097.00 9,926 -7.49% view
S 2011-12-20 2011-12-21 13:13:02.0 HONEYWELL INTERNATIONAL INC HON Ismail Alexandre officer (President and CEO, TS) 5,000 $53.35 $266,750.00 13,712 -7.55% view
S 2011-12-20 2011-12-21 13:13:02.0 HONEYWELL INTERNATIONAL INC HON Ismail Alexandre officer (President and CEO, TS) 100 $53.34 $5,334.00 18,712 -7.57% view
S 2011-12-20 2011-12-21 13:13:02.0 HONEYWELL INTERNATIONAL INC HON Ismail Alexandre officer (President and CEO, TS) 3,670 $53.33 $195,721.00 18,812 -7.59% view
S 2011-12-20 2011-12-21 13:13:02.0 HONEYWELL INTERNATIONAL INC HON Ismail Alexandre officer (President and CEO, TS) 4,230 $53.32 $225,544.00 22,482 -7.61% view
S 2011-12-20 2011-12-21 09:36:39.0 HONEYWELL INTERNATIONAL INC HON Kramvis Andreas officer (President and CEO, PMT) 800 $54.20 $43,360.00 34,219 -5.87% view
S 2011-11-15 2011-11-17 13:53:48.0 HONEYWELL INTERNATIONAL INC HON Kramvis Andreas officer (President and CEO, SM) 900 $55.15 $49,635.00 35,019 4.97% view
P 2011-11-15 2011-11-17 13:50:31.0 HONEYWELL INTERNATIONAL INC HON BURKE KEVIN director 2,000 $54.60 $109,200.00 8,000 -4.01% view
S 2011-11-14 2011-11-14 17:40:40.0 HONEYWELL INTERNATIONAL INC HON James Mark R. officer (Sr. VP, HR & Communications) 27 $54.66 $1,475.82 22,044 5.69% view
S 2011-11-14 2011-11-14 17:40:40.0 HONEYWELL INTERNATIONAL INC HON James Mark R. officer (Sr. VP, HR & Communications) 846 $54.52 $46,123.90 22,071 5.45% view
S 2011-11-14 2011-11-14 17:40:40.0 HONEYWELL INTERNATIONAL INC HON James Mark R. officer (Sr. VP, HR & Communications) 2,125 $54.55 $115,919.00 22,917 5.50% view
S 2011-11-11 2011-11-14 17:37:54.0 HONEYWELL INTERNATIONAL INC HON FRADIN ROGER officer (President & CEO, ACS) 58,500 $55.01 $3,218,080.00 164,733 1.84% view
S 2011-11-11 2011-11-14 17:34:41.0 HONEYWELL INTERNATIONAL INC HON COTE DAVID M officer (Chairman & CEO) 427,355 $54.83 $2.34319E7 257,903 1.51% view
S 2011-11-10 2011-11-14 17:34:41.0 HONEYWELL INTERNATIONAL INC HON COTE DAVID M officer (Chairman & CEO) 433,400 $53.59 $2.32259E7 135,258 -0.77% view
S 2011-10-27 2011-10-28 08:32:14.0 HONEYWELL INTERNATIONAL INC HON Kramvis Andreas officer (President and CEO, SM) 1,200 $54.16 $64,992.00 35,919 9.27% view
S 2011-10-27 2011-10-28 08:29:01.0 HONEYWELL INTERNATIONAL INC HON Mahoney Timothy O. officer (President and CEO, Aerospace) 597 $54.25 $32,387.20 28,882 9.42% view
S 2011-10-26 2011-10-27 11:19:20.0 HONEYWELL INTERNATIONAL INC HON Adams Katherine L. officer (Sr. VP & General Counsel) 905 $51.39 $46,507.90 13,844 4.38% view
P 2011-08-26 2011-08-26 15:29:14.0 HONEYWELL INTERNATIONAL INC HON PARDO JAIME CHICO /FA director 2,400 $45.85 $110,040.00 15,396 -4.47% view
P 2011-08-26 2011-08-26 15:29:14.0 HONEYWELL INTERNATIONAL INC HON PARDO JAIME CHICO /FA director 1,100 $45.84 $50,424.00 12,996 -4.45% view
P 2011-08-26 2011-08-26 15:29:14.0 HONEYWELL INTERNATIONAL INC HON PARDO JAIME CHICO /FA director 1,200 $45.83 $54,996.00 11,896 -4.43% view
P 2011-08-26 2011-08-26 15:29:14.0 HONEYWELL INTERNATIONAL INC HON PARDO JAIME CHICO /FA director 300 $45.82 $13,746.00 10,696 -4.41% view
P 2011-08-22 2011-08-23 11:52:17.0 HONEYWELL INTERNATIONAL INC HON DAVIS D SCOTT director 5,000 $43.62 $218,100.00 11,000 -3.78% view
P 2011-08-05 2011-08-08 10:10:34.0 HONEYWELL INTERNATIONAL INC HON Gregg Judd A. director 2,000 $49.57 $99,140.00 2,000 -8.31% view
S 2011-04-26 2011-04-27 17:32:10.0 HONEYWELL INTERNATIONAL INC HON Ismail Alexandre officer (President & CEO, TS) 4,605 $61.37 $282,609.00 17,000 4.68% view
S 2011-04-26 2011-04-27 17:31:03.0 HONEYWELL INTERNATIONAL INC HON Mikkilineni Krishna officer (SVP, Engineering & Operations) 14,100 $61.00 $860,100.00 27,033 4.10% view
S 2011-04-26 2011-04-27 17:30:21.0 HONEYWELL INTERNATIONAL INC HON BETHUNE GORDON M director 1,490 $61.06 $90,979.40 3,510 4.19% view
S 2011-03-03 2011-03-03 16:18:04.0 HONEYWELL INTERNATIONAL INC HON Adams Katherine L. officer (Sr. VP & General Counsel) 505 $57.08 $28,825.40 10,981 -3.82% view
S 2010-12-20 2010-12-22 11:43:51.0 HONEYWELL INTERNATIONAL INC HON Kramvis Andreas officer (President & CEO, SM) 24,962 $52.94 $1,321,490.00 19,305 -3.10% view
S 2010-12-20 2010-12-22 11:39:03.0 HONEYWELL INTERNATIONAL INC HON FRADIN ROGER officer (President & CEO, ACS) 1,900 $52.96 $100,624.00 109,461 -3.06% view
S 2010-12-20 2010-12-22 11:39:03.0 HONEYWELL INTERNATIONAL INC HON FRADIN ROGER officer (President & CEO, ACS) 36,872 $52.95 $1,952,370.00 111,361 -3.08% view
S 2010-11-22 2010-11-23 15:10:51.0 HONEYWELL INTERNATIONAL INC HON FRADIN ROGER officer (President & CEO, ACS) 57,519 $49.46 $2,845,000.00 147,662 -8.61% view
P 2010-11-22 2010-11-23 15:09:46.0 HONEYWELL INTERNATIONAL INC HON PAZ GEORGE director 1,000 $49.58 $49,576.00 1,000 8.36% view
S 2010-07-29 2010-07-30 10:17:49.0 HONEYWELL INTERNATIONAL INC HON James Mark R. officer (Sr. VP, HR & Communications) 701 $42.55 $29,827.60 11,473 6.82% view
S 2010-07-29 2010-07-30 10:10:47.0 HONEYWELL INTERNATIONAL INC HON Mahoney Timothy O. officer (President and CEO, Aerospace) 477 $43.45 $20,723.70 18,221 8.74% view
S 2010-07-29 2010-07-30 10:06:32.0 HONEYWELL INTERNATIONAL INC HON DAVIS D SCOTT director 300 $43.50 $13,050.00 6,000 8.85% view
S 2010-07-29 2010-07-30 10:06:32.0 HONEYWELL INTERNATIONAL INC HON DAVIS D SCOTT director 700 $42.50 $29,750.00 6,300 6.71% view
S 2010-07-28 2010-07-29 13:23:17.0 HONEYWELL INTERNATIONAL INC HON Adams Katherine L. officer (Sr. VP & General Counsel) 300 $43.33 $12,999.00 9,139 8.49% view
S 2010-07-28 2010-07-29 13:23:17.0 HONEYWELL INTERNATIONAL INC HON Adams Katherine L. officer (Sr. VP & General Counsel) 618 $43.32 $26,771.80 9,439 8.47% view
S 2010-04-28 2010-04-29 11:02:05.0 HONEYWELL INTERNATIONAL INC HON FRADIN ROGER officer (President & CEO, ACS) 130 $46.95 $6,103.51 92,917 8.90% view
S 2010-04-28 2010-04-29 11:02:05.0 HONEYWELL INTERNATIONAL INC HON FRADIN ROGER officer (President & CEO, ACS) 464 $47.15 $21,877.80 93,047 9.29% view
S 2010-04-28 2010-04-29 11:02:05.0 HONEYWELL INTERNATIONAL INC HON FRADIN ROGER officer (President & CEO, ACS) 2,000 $47.15 $94,300.00 93,511 9.29% view
S 2010-04-28 2010-04-29 11:02:05.0 HONEYWELL INTERNATIONAL INC HON FRADIN ROGER officer (President & CEO, ACS) 400 $47.15 $18,859.00 95,511 9.28% view
S 2010-04-28 2010-04-29 11:02:05.0 HONEYWELL INTERNATIONAL INC HON FRADIN ROGER officer (President & CEO, ACS) 1,300 $47.15 $61,288.50 95,911 9.28% view
S 2010-03-02 2010-03-03 15:14:44.0 HONEYWELL INTERNATIONAL INC HON Mahoney Timothy O. officer (President and CEO, Aerospace) 397 $40.59 $16,114.20 14,087 -10.94% view
S 2010-03-03 2010-03-03 15:12:50.0 HONEYWELL INTERNATIONAL INC HON James Mark R. officer (Sr. VP, HR & Communications) 400 $40.89 $16,356.00 7,880 -10.12% view
S 2010-03-03 2010-03-03 15:09:26.0 HONEYWELL INTERNATIONAL INC HON Adams Katherine L. officer (Sr. VP & General Counsel) 451 $41.10 $18,536.10 4,453 -9.56% view
S 2010-03-02 2010-03-03 15:07:03.0 HONEYWELL INTERNATIONAL INC HON Kramvis Andreas officer (President and CEO, SM) 318 $40.61 $12,914.00 13,449 -10.88% view
S 2010-03-02 2010-03-03 15:04:09.0 HONEYWELL INTERNATIONAL INC HON FRADIN ROGER officer (President & CEO, ACS) 300 $40.65 $12,195.00 92,211 -10.77% view
S 2010-03-02 2010-03-03 15:04:09.0 HONEYWELL INTERNATIONAL INC HON FRADIN ROGER officer (President & CEO, ACS) 3,694 $40.64 $150,124.00 92,511 -10.80% view
S 2010-03-02 2010-03-03 15:04:09.0 HONEYWELL INTERNATIONAL INC HON FRADIN ROGER officer (President & CEO, ACS) 3,200 $40.63 $130,016.00 96,205 -10.83% view
S 2010-03-02 2010-03-03 15:04:09.0 HONEYWELL INTERNATIONAL INC HON FRADIN ROGER officer (President & CEO, ACS) 1,828 $40.62 $74,253.40 99,405 -10.86% view
P 2010-02-09 2010-02-10 15:45:47.0 HONEYWELL INTERNATIONAL INC HON BURKE KEVIN director 6,000 $37.65 $225,900.00 6,000 12.27% view
S 2009-09-24 2009-09-24 16:16:38.0 HONEYWELL INTERNATIONAL INC HON SHEARES BRADLEY T director 840 $38.49 $32,331.60 2,160 0.60% view
S 2009-08-10 2009-08-10 16:18:36.0 HONEYWELL INTERNATIONAL INC HON Ismail Alexandre officer (President and CEO, TS) 1,707 $35.95 $61,366.60 9,610 -9.65% view
S 2009-02-04 2009-02-06 10:57:44.0 HONEYWELL INTERNATIONAL INC HON STAFFORD JOHN R director 2,100 $32.26 $67,746.00 23,441 21.39% view
S* 2008-01-20 2009-01-20 16:28:58.0 HONEYWELL INTERNATIONAL INC HON Brown Adriane M officer (President & CEO, TS) 77 $32.17 $2,477.40 31,542 -75.14% view
S 2009-01-20 2009-01-20 16:27:44.0 HONEYWELL INTERNATIONAL INC HON KITTELBERGER LARRY E officer (SVP Technology & Operations) 62 $32.17 $1,994.79 132,594 10.36% view
S 2008-07-24 2008-07-25 11:21:46.0 HONEYWELL INTERNATIONAL INC HON Brown Adriane M officer (President & CEO, TS) 18,900 $52.58 $993,856.00 31,847 5.30% view
S 2008-07-24 2008-07-25 11:21:46.0 HONEYWELL INTERNATIONAL INC HON Brown Adriane M officer (President & CEO, TS) 52,048 $52.16 $2,714,670.00 50,747 4.52% view
S 2008-05-05 2008-05-06 08:25:33.0 HONEYWELL INTERNATIONAL INC HON KREINDLER PETER M officer (Sr. VP and General Counsel) 500 $60.61 $30,305.00 30,000 6.45% view
S 2008-05-05 2008-05-06 08:25:33.0 HONEYWELL INTERNATIONAL INC HON KREINDLER PETER M officer (Sr. VP and General Counsel) 300 $60.60 $18,180.00 30,500 6.44% view
S 2008-05-05 2008-05-06 08:25:33.0 HONEYWELL INTERNATIONAL INC HON KREINDLER PETER M officer (Sr. VP and General Counsel) 400 $60.59 $24,236.00 30,800 6.42% view
S 2008-05-05 2008-05-06 08:25:33.0 HONEYWELL INTERNATIONAL INC HON KREINDLER PETER M officer (Sr. VP and General Counsel) 200 $60.57 $12,114.00 31,200 6.39% view
S 2008-05-05 2008-05-06 08:25:33.0 HONEYWELL INTERNATIONAL INC HON KREINDLER PETER M officer (Sr. VP and General Counsel) 100 $60.56 $6,056.00 31,400 6.37% view
S 2008-05-05 2008-05-06 08:25:33.0 HONEYWELL INTERNATIONAL INC HON KREINDLER PETER M officer (Sr. VP and General Counsel) 100 $60.54 $6,054.00 31,500 6.34% view
S 2008-05-05 2008-05-06 08:25:33.0 HONEYWELL INTERNATIONAL INC HON KREINDLER PETER M officer (Sr. VP and General Counsel) 999 $60.53 $60,469.50 31,600 6.33% view
S 2008-05-05 2008-05-06 08:25:33.0 HONEYWELL INTERNATIONAL INC HON KREINDLER PETER M officer (Sr. VP and General Counsel) 2,801 $60.52 $169,517.00 32,599 6.31% view
S 2008-05-05 2008-05-06 08:25:33.0 HONEYWELL INTERNATIONAL INC HON KREINDLER PETER M officer (Sr. VP and General Counsel) 8,800 $60.51 $532,488.00 35,400 6.30% view
S 2008-05-05 2008-05-06 08:25:33.0 HONEYWELL INTERNATIONAL INC HON KREINDLER PETER M officer (Sr. VP and General Counsel) 10,800 $60.50 $653,400.00 44,200 6.28% view
S 2008-02-06 2008-02-07 16:13:24.0 HONEYWELL INTERNATIONAL INC HON KREINDLER PETER M officer (Sr. VP and General Counsel) 25,000 $59.40 $1,485,000.00 30,000 3.23% view
S 2008-01-18 2008-01-22 10:32:24.0 HONEYWELL INTERNATIONAL INC HON KITTELBERGER LARRY E officer (SVP Technology & Operations) 60 $56.10 $3,366.00 132,594 0.11% view
S 2008-01-18 2008-01-22 10:29:21.0 HONEYWELL INTERNATIONAL INC HON KREINDLER PETER M officer (Senior VP and General Counsel) 560 $56.10 $31,416.00 30,000 0.11% view
S 2007-12-19 2007-12-21 09:40:32.0 HONEYWELL INTERNATIONAL INC HON KREINDLER PETER M officer (Sr. VP and General Counsel) 400 $61.14 $24,456.00 30,000 9.55% view
S 2007-12-19 2007-12-21 09:40:32.0 HONEYWELL INTERNATIONAL INC HON KREINDLER PETER M officer (Sr. VP and General Counsel) 3,300 $61.12 $201,696.00 30,400 9.52% view
S 2007-12-19 2007-12-21 09:40:32.0 HONEYWELL INTERNATIONAL INC HON KREINDLER PETER M officer (Sr. VP and General Counsel) 4,400 $61.11 $268,884.00 33,700 9.51% view
S 2007-12-19 2007-12-21 09:40:32.0 HONEYWELL INTERNATIONAL INC HON KREINDLER PETER M officer (Sr. VP and General Counsel) 5,783 $61.10 $353,341.00 38,100 9.49% view
S 2007-12-19 2007-12-21 09:40:32.0 HONEYWELL INTERNATIONAL INC HON KREINDLER PETER M officer (Sr. VP and General Counsel) 2,517 $61.09 $153,764.00 43,883 9.48% view
S 2007-12-19 2007-12-21 09:40:32.0 HONEYWELL INTERNATIONAL INC HON KREINDLER PETER M officer (Sr. VP and General Counsel) 1,725 $61.08 $105,363.00 46,400 9.46% view
S 2007-12-19 2007-12-21 09:40:32.0 HONEYWELL INTERNATIONAL INC HON KREINDLER PETER M officer (Sr. VP and General Counsel) 4,375 $61.07 $267,181.00 48,125 9.45% view
S 2007-12-19 2007-12-21 09:40:32.0 HONEYWELL INTERNATIONAL INC HON KREINDLER PETER M officer (Sr. VP and General Counsel) 1,900 $61.06 $116,014.00 52,500 9.43% view
S 2007-12-19 2007-12-21 09:40:32.0 HONEYWELL INTERNATIONAL INC HON KREINDLER PETER M officer (Sr. VP and General Counsel) 100 $61.05 $6,105.00 54,400 9.42% view
S 2007-12-19 2007-12-21 09:40:32.0 HONEYWELL INTERNATIONAL INC HON KREINDLER PETER M officer (Sr. VP and General Counsel) 500 $61.04 $30,520.00 54,500 9.40% view
S 2007-11-06 2007-11-08 09:55:43.0 HONEYWELL INTERNATIONAL INC HON KITTELBERGER LARRY E officer (SVP, Technology & Operations) 43,625 $60.55 $2,641,490.00 132,594 3.83% view
S 2007-10-29 2007-10-30 11:22:42.0 HONEYWELL INTERNATIONAL INC HON KREINDLER PETER M officer (Sr. VP and General Counsel) 900 $59.75 $53,775.00 30,000 8.15% view
S 2007-10-29 2007-10-30 11:22:42.0 HONEYWELL INTERNATIONAL INC HON KREINDLER PETER M officer (Sr. VP and General Counsel) 800 $59.74 $47,792.00 30,900 8.14% view
S 2007-10-29 2007-10-30 11:22:42.0 HONEYWELL INTERNATIONAL INC HON KREINDLER PETER M officer (Sr. VP and General Counsel) 500 $59.73 $29,865.00 31,700 8.12% view
S 2007-10-29 2007-10-30 11:22:42.0 HONEYWELL INTERNATIONAL INC HON KREINDLER PETER M officer (Sr. VP and General Counsel) 3,330 $59.72 $198,868.00 32,200 8.10% view
S 2007-10-29 2007-10-30 11:22:42.0 HONEYWELL INTERNATIONAL INC HON KREINDLER PETER M officer (Sr. VP and General Counsel) 1,200 $59.71 $71,652.00 35,530 8.09% view
S 2007-10-29 2007-10-30 11:22:42.0 HONEYWELL INTERNATIONAL INC HON KREINDLER PETER M officer (Sr. VP and General Counsel) 4,500 $59.70 $268,650.00 36,730 8.07% view
S 2007-10-29 2007-10-30 11:22:42.0 HONEYWELL INTERNATIONAL INC HON KREINDLER PETER M officer (Sr. VP and General Counsel) 6,970 $59.69 $416,039.00 41,230 8.06% view
S 2007-10-29 2007-10-30 11:22:42.0 HONEYWELL INTERNATIONAL INC HON KREINDLER PETER M officer (Sr. VP and General Counsel) 4,300 $59.68 $256,624.00 48,200 8.04% view
S 2007-10-29 2007-10-30 11:22:42.0 HONEYWELL INTERNATIONAL INC HON KREINDLER PETER M officer (Sr. VP and General Counsel) 3,000 $59.67 $179,010.00 52,500 8.03% view
S 2007-10-29 2007-10-30 11:22:42.0 HONEYWELL INTERNATIONAL INC HON KREINDLER PETER M officer (Sr. VP and General Counsel) 600 $59.66 $35,796.00 55,500 8.01% view
S 2007-10-29 2007-10-30 11:22:42.0 HONEYWELL INTERNATIONAL INC HON KREINDLER PETER M officer (Sr. VP and General Counsel) 2,200 $59.65 $131,230.00 56,100 8.00% view
S 2007-10-29 2007-10-30 11:22:42.0 HONEYWELL INTERNATIONAL INC HON KREINDLER PETER M officer (Sr. VP and General Counsel) 2,000 $59.64 $119,280.00 58,300 7.98% view
S 2007-10-29 2007-10-30 11:22:42.0 HONEYWELL INTERNATIONAL INC HON KREINDLER PETER M officer (Sr. VP and General Counsel) 2,261 $59.63 $134,823.00 60,300 7.97% view
S 2007-10-29 2007-10-30 11:22:42.0 HONEYWELL INTERNATIONAL INC HON KREINDLER PETER M officer (Sr. VP and General Counsel) 11,800 $59.62 $703,516.00 62,561 7.95% view
S 2007-10-29 2007-10-30 11:22:42.0 HONEYWELL INTERNATIONAL INC HON KREINDLER PETER M officer (Sr. VP and General Counsel) 5,639 $59.61 $336,141.00 74,361 7.93% view
S 2007-10-29 2007-10-29 16:43:08.0 HONEYWELL INTERNATIONAL INC HON WEIDENKOPF THOMAS W officer (Sr. VP, HR & Communications) 16,500 $59.74 $985,776.00 41,500 8.14% view
S 2007-05-08 2007-05-10 15:42:15.0 HONEYWELL INTERNATIONAL INC HON FRADIN ROGER officer (President & CEO, ACS) 13,820 $55.45 $766,319.00 4,235 -3.48% view
S 2007-05-08 2007-05-10 15:42:15.0 HONEYWELL INTERNATIONAL INC HON FRADIN ROGER officer (President & CEO, ACS) 4,400 $55.47 $244,068.00 18,055 -3.44% view
S 2007-05-08 2007-05-10 15:42:15.0 HONEYWELL INTERNATIONAL INC HON FRADIN ROGER officer (President & CEO, ACS) 2,696 $55.48 $149,574.00 22,455 -3.42% view
S 2007-05-08 2007-05-10 15:42:15.0 HONEYWELL INTERNATIONAL INC HON FRADIN ROGER officer (President & CEO, ACS) 700 $55.49 $38,843.00 25,151 -3.41% view
S 2007-05-08 2007-05-09 12:07:43.0 HONEYWELL INTERNATIONAL INC HON KREINDLER PETER M officer (Sr. VP and General Counsel) 6,100 $55.24 $336,964.00 30,000 -3.87% view
S 2007-05-08 2007-05-09 12:07:43.0 HONEYWELL INTERNATIONAL INC HON KREINDLER PETER M officer (Sr. VP and General Counsel) 1,600 $55.25 $88,400.00 36,100 -3.86% view
S 2007-05-08 2007-05-09 12:07:43.0 HONEYWELL INTERNATIONAL INC HON KREINDLER PETER M officer (Sr. VP and General Counsel) 1,100 $55.27 $60,797.00 37,700 -3.82% view
S 2007-05-08 2007-05-09 12:07:43.0 HONEYWELL INTERNATIONAL INC HON KREINDLER PETER M officer (Sr. VP and General Counsel) 15,400 $55.30 $851,620.00 38,800 -3.76% view
S 2007-05-08 2007-05-09 12:07:43.0 HONEYWELL INTERNATIONAL INC HON KREINDLER PETER M officer (Sr. VP and General Counsel) 6,800 $55.31 $376,108.00 54,200 -3.74% view
S 2007-05-08 2007-05-09 12:07:43.0 HONEYWELL INTERNATIONAL INC HON KREINDLER PETER M officer (Sr. VP and General Counsel) 4,600 $55.32 $254,472.00 61,000 -3.72% view
S 2007-05-08 2007-05-09 12:07:43.0 HONEYWELL INTERNATIONAL INC HON KREINDLER PETER M officer (Sr. VP and General Counsel) 2,300 $55.33 $127,259.00 65,600 -3.71% view
S 2007-05-08 2007-05-09 12:07:43.0 HONEYWELL INTERNATIONAL INC HON KREINDLER PETER M officer (Sr. VP and General Counsel) 500 $55.34 $27,670.00 67,900 -3.69% view
S 2007-05-08 2007-05-09 12:07:43.0 HONEYWELL INTERNATIONAL INC HON KREINDLER PETER M officer (Sr. VP and General Counsel) 300 $55.35 $16,605.00 68,400 -3.67% view
S 2007-05-07 2007-05-09 12:07:43.0 HONEYWELL INTERNATIONAL INC HON KREINDLER PETER M officer (Sr. VP and General Counsel) 4,900 $56.01 $274,449.00 68,700 -0.70% view
S 2007-05-07 2007-05-09 12:07:43.0 HONEYWELL INTERNATIONAL INC HON KREINDLER PETER M officer (Sr. VP and General Counsel) 100 $56.02 $5,602.00 73,600 -0.68% view
S 2007-05-07 2007-05-09 12:07:43.0 HONEYWELL INTERNATIONAL INC HON KREINDLER PETER M officer (Sr. VP and General Counsel) 1,800 $56.03 $100,854.00 73,700 -0.66% view
S 2007-05-07 2007-05-09 12:07:43.0 HONEYWELL INTERNATIONAL INC HON KREINDLER PETER M officer (Sr. VP and General Counsel) 4,500 $56.04 $252,180.00 75,500 -0.64% view
S 2007-05-02 2007-05-03 10:09:59.0 HONEYWELL INTERNATIONAL INC HON KREINDLER PETER M officer (Sr. VP and General Counsel) 50,000 $55.78 $2,789,000.00 30,000 18.90% view
S 2007-04-30 2007-05-01 11:10:39.0 HONEYWELL INTERNATIONAL INC HON KREINDLER PETER M officer (Sr. VP and General Counsel) 100,000 $54.44 $5,444,000.00 30,000 16.90% view
S 2007-04-26 2007-04-30 14:42:29.0 HONEYWELL INTERNATIONAL INC HON KREINDLER PETER M officer (Sr. VP and General Counsel) 6,771 $53.81 $364,348.00 30,000 -5.80% view
S 2007-04-26 2007-04-30 14:42:29.0 HONEYWELL INTERNATIONAL INC HON KREINDLER PETER M officer (Sr. VP and General Counsel) 57,501 $53.80 $3,093,550.00 36,771 -5.82% view
S 2007-04-26 2007-04-30 14:42:29.0 HONEYWELL INTERNATIONAL INC HON KREINDLER PETER M officer (Sr. VP and General Counsel) 6,128 $53.79 $329,625.00 94,272 -5.84% view
S 2007-04-26 2007-04-30 14:42:29.0 HONEYWELL INTERNATIONAL INC HON KREINDLER PETER M officer (Sr. VP and General Counsel) 500 $53.78 $26,890.00 100,400 -5.86% view
S 2007-04-26 2007-04-30 14:42:29.0 HONEYWELL INTERNATIONAL INC HON KREINDLER PETER M officer (Sr. VP and General Counsel) 600 $53.77 $32,262.00 100,900 -5.88% view
S 2007-04-26 2007-04-30 14:42:29.0 HONEYWELL INTERNATIONAL INC HON KREINDLER PETER M officer (Sr. VP and General Counsel) 28,100 $53.75 $1,510,380.00 101,500 -5.92% view
S 2007-04-26 2007-04-30 14:42:29.0 HONEYWELL INTERNATIONAL INC HON KREINDLER PETER M officer (Sr. VP and General Counsel) 400 $53.74 $21,496.00 129,600 -5.94% view
S 2007-04-27 2007-04-30 14:41:27.0 HONEYWELL INTERNATIONAL INC HON GILLETTE ROBERT J officer (President &CEO, Aerospace) 2,175 $54.77 $119,125.00 0 17.40% view
S 2007-04-27 2007-04-30 14:41:27.0 HONEYWELL INTERNATIONAL INC HON GILLETTE ROBERT J officer (President &CEO, Aerospace) 100 $54.76 $5,476.00 2,175 17.38% view
S 2007-04-27 2007-04-30 14:41:27.0 HONEYWELL INTERNATIONAL INC HON GILLETTE ROBERT J officer (President &CEO, Aerospace) 2,300 $54.75 $125,925.00 2,275 17.37% view
S 2007-04-27 2007-04-30 14:41:27.0 HONEYWELL INTERNATIONAL INC HON GILLETTE ROBERT J officer (President &CEO, Aerospace) 1,800 $54.74 $98,532.00 4,575 17.35% view
S 2007-04-27 2007-04-30 14:41:27.0 HONEYWELL INTERNATIONAL INC HON GILLETTE ROBERT J officer (President &CEO, Aerospace) 1,537 $54.73 $84,120.00 6,375 17.34% view
S 2007-04-27 2007-04-30 14:41:27.0 HONEYWELL INTERNATIONAL INC HON GILLETTE ROBERT J officer (President &CEO, Aerospace) 800 $54.72 $43,776.00 7,912 17.32% view
P 2007-02-22 2007-02-26 16:11:57.0 HONEYWELL INTERNATIONAL INC HON PARDO JAIME CHICO /FA director 5,000 $48.00 $240,000.00 8,354 -0.88% view
S 2007-01-18 2007-01-19 18:16:00.0 HONEYWELL INTERNATIONAL INC HON KREINDLER PETER M officer (Senior VP and General Counsel) 550 $45.16 $24,838.00 30,000 -5.91% view
S 2007-01-18 2007-01-19 18:12:05.0 HONEYWELL INTERNATIONAL INC HON KITTELBERGER LARRY E officer (SVP Technology & Operations) 59 $45.16 $2,664.44 43,625 -5.91% view
S 2007-01-18 2007-01-19 18:08:36.0 HONEYWELL INTERNATIONAL INC HON Brown Adriane M officer (President & CEO, TS) 74 $45.16 $3,341.84 8,416 -5.91% view
S 2006-12-20 2006-12-22 09:13:57.0 HONEYWELL INTERNATIONAL INC HON KREINDLER PETER M officer (Senior VP and GC) 30,382 $44.67 $1,357,190.00 30,000 -1.39% view
P 2005-10-27 2005-10-28 12:04:04.0 HONEYWELL INTERNATIONAL INC HON DAVIS D SCOTT director 600 $33.58 $20,148.00 7,000 9.95% view
P 2005-10-27 2005-10-28 12:04:04.0 HONEYWELL INTERNATIONAL INC HON DAVIS D SCOTT director 300 $33.57 $10,071.00 6,400 9.98% view
P 2005-10-27 2005-10-28 12:04:04.0 HONEYWELL INTERNATIONAL INC HON DAVIS D SCOTT director 200 $33.56 $6,712.00 6,100 10.01% view
P 2005-10-27 2005-10-28 12:04:04.0 HONEYWELL INTERNATIONAL INC HON DAVIS D SCOTT director 2,500 $33.53 $83,825.00 5,900 10.11% view
P 2005-10-27 2005-10-28 12:04:04.0 HONEYWELL INTERNATIONAL INC HON DAVIS D SCOTT director 100 $33.50 $3,350.00 3,400 10.21% view
P 2005-10-27 2005-10-28 12:04:04.0 HONEYWELL INTERNATIONAL INC HON DAVIS D SCOTT director 200 $33.49 $6,698.00 3,300 10.24% view
P 2005-10-27 2005-10-28 12:04:04.0 HONEYWELL INTERNATIONAL INC HON DAVIS D SCOTT director 100 $33.47 $3,347.00 3,100 10.31% view
S 2005-10-25 2005-10-27 14:23:15.0 HONEYWELL INTERNATIONAL INC HON GILLETTE ROBERT J officer (President &CEO, Aerospace) 1,428 $34.02 $48,580.60 0 -8.52% view
S 2005-10-25 2005-10-27 14:23:15.0 HONEYWELL INTERNATIONAL INC HON GILLETTE ROBERT J officer (President &CEO, Aerospace) 200 $34.03 $6,806.00 1,428 -8.49% view
S 2005-10-25 2005-10-27 14:23:15.0 HONEYWELL INTERNATIONAL INC HON GILLETTE ROBERT J officer (President &CEO, Aerospace) 900 $34.02 $30,618.00 1,628 -8.52% view
S 2005-10-25 2005-10-27 14:23:15.0 HONEYWELL INTERNATIONAL INC HON GILLETTE ROBERT J officer (President &CEO, Aerospace) 200 $34.04 $6,808.00 2,528 -8.46% view
S 2005-10-25 2005-10-27 14:23:15.0 HONEYWELL INTERNATIONAL INC HON GILLETTE ROBERT J officer (President &CEO, Aerospace) 500 $34.03 $17,015.00 2,728 -8.49% view
S 2005-10-25 2005-10-27 14:23:15.0 HONEYWELL INTERNATIONAL INC HON GILLETTE ROBERT J officer (President &CEO, Aerospace) 100 $34.04 $3,404.00 3,228 -8.46% view
S 2005-02-25 2005-02-28 11:32:57.0 HONEYWELL INTERNATIONAL INC HON Brown Adriane M officer (President &CEO, TS) 600 $37.64 $22,584.00 3,971 1.25% view
S 2005-02-25 2005-02-28 11:32:56.0 HONEYWELL INTERNATIONAL INC HON Brown Adriane M officer (President &CEO, TS) 2,700 $37.63 $101,601.00 4,571 1.22% view
* An * after P or S in the Buy/Sell column means the transaction was filed by the insider as open market, but it was marked as private transaction by insidercow's proprietary method
Enter Another Stock Symbol: